createdAt,value
2023-03-17T00:00:13.772Z,23.17
2023-03-17T00:01:13.865Z,23.20
2023-03-17T00:02:13.982Z,23.18
2023-03-17T00:03:14.056Z,23.20
2023-03-17T00:04:14.138Z,23.20
2023-03-17T00:05:14.217Z,23.18
2023-03-17T00:06:14.322Z,23.17
2023-03-17T00:07:14.432Z,23.16
2023-03-17T00:08:14.542Z,23.18
2023-03-17T00:09:14.672Z,23.20
2023-03-17T00:10:14.744Z,23.18
2023-03-17T00:11:14.921Z,23.17
2023-03-17T00:12:14.991Z,23.17
2023-03-17T00:13:15.103Z,23.18
2023-03-17T00:14:15.293Z,23.17
2023-03-17T00:15:15.319Z,23.17
2023-03-17T00:16:15.467Z,23.16
2023-03-17T00:17:15.502Z,23.20
2023-03-17T00:18:15.599Z,23.20
2023-03-17T00:39:17.973Z,23.18
2023-03-17T00:49:19.151Z,23.16
2023-03-17T02:39:28.002Z,23.11
2023-03-17T02:40:28.387Z,23.11
2023-03-17T02:41:28.098Z,23.11
2023-03-17T02:42:28.174Z,23.13
2023-03-17T02:43:28.225Z,23.10
2023-03-17T02:44:28.273Z,23.11
2023-03-17T02:45:28.343Z,23.10
2023-03-17T02:46:28.543Z,23.11
2023-03-17T02:47:28.515Z,23.11
2023-03-17T02:48:28.618Z,23.10
2023-03-17T02:49:28.682Z,23.11
2023-03-17T02:50:29.075Z,23.09
2023-03-17T02:51:28.858Z,23.10
2023-03-17T02:52:28.959Z,23.11
2023-03-17T02:53:28.963Z,23.09
2023-03-17T02:54:29.024Z,23.11
2023-03-17T02:55:29.066Z,23.09
2023-03-17T02:56:29.121Z,23.10
2023-03-17T02:57:29.215Z,23.10
2023-03-17T02:58:29.238Z,23.11
2023-03-17T02:59:29.296Z,23.10
2023-03-17T03:00:29.655Z,23.10
2023-03-17T03:01:29.507Z,23.11
2023-03-17T03:02:29.492Z,23.07
2023-03-17T03:03:29.536Z,23.07
2023-03-17T03:04:29.703Z,23.11
2023-03-17T03:05:29.643Z,23.09
2023-03-17T03:06:29.694Z,23.09
2023-03-17T03:07:29.764Z,23.10
2023-03-17T03:08:29.838Z,23.09
2023-03-17T03:09:29.907Z,23.09
2023-03-17T03:10:30.159Z,23.09
2023-03-17T03:11:30.010Z,23.07
2023-03-17T03:12:30.095Z,23.09
2023-03-17T03:13:30.180Z,23.09
2023-03-17T03:14:30.282Z,23.10
2023-03-17T03:15:30.470Z,23.07
2023-03-17T03:16:30.458Z,23.07
2023-03-17T03:17:30.527Z,23.07
2023-03-17T03:18:30.586Z,23.06
2023-03-17T03:19:30.667Z,23.09
2023-03-17T03:20:31.006Z,23.10
2023-03-17T03:21:30.859Z,23.07
2023-03-17T03:22:30.931Z,23.09
2023-03-17T03:23:31.009Z,23.07
2023-03-17T03:24:31.113Z,23.07
2023-03-17T03:25:31.156Z,23.07
2023-03-17T03:26:31.201Z,23.09
2023-03-17T03:27:31.283Z,23.09
2023-03-17T03:28:31.369Z,23.07
2023-03-17T03:29:31.423Z,23.09
2023-03-17T03:30:32.004Z,23.09
2023-03-17T03:31:31.579Z,23.09
2023-03-17T03:32:31.700Z,23.06
2023-03-17T03:33:31.693Z,23.09
2023-03-17T03:34:31.753Z,23.09
2023-03-17T03:35:31.827Z,23.07
2023-03-17T03:36:31.868Z,23.07
2023-03-17T03:37:31.946Z,23.09
2023-03-17T03:38:32.103Z,23.09
2023-03-17T03:39:32.114Z,23.06
2023-03-17T03:40:32.472Z,23.05
2023-03-17T03:41:32.319Z,23.06
2023-03-17T03:42:32.399Z,23.07
2023-03-17T03:43:32.476Z,23.06
2023-03-17T03:44:32.540Z,23.06
2023-03-17T03:45:32.615Z,23.06
2023-03-17T03:46:32.781Z,23.06
2023-03-17T03:47:32.792Z,23.06
2023-03-17T03:48:32.881Z,23.07
2023-03-17T03:49:32.984Z,23.06
2023-03-17T03:50:33.049Z,23.07
2023-03-17T03:51:33.143Z,23.07
2023-03-17T03:52:33.213Z,23.05
2023-03-17T03:53:33.252Z,23.07
2023-03-17T03:54:33.314Z,23.06
2023-03-17T03:55:33.372Z,23.07
2023-03-17T03:56:33.431Z,23.05
2023-03-17T03:57:33.498Z,23.06
2023-03-17T03:58:33.576Z,23.03
2023-03-17T03:59:33.601Z,23.07
2023-03-17T04:00:33.658Z,23.09
2023-03-17T04:01:33.739Z,23.07
2023-03-17T04:02:33.814Z,23.07
2023-03-17T04:03:33.879Z,23.07
2023-03-17T04:04:33.966Z,23.06
2023-03-17T04:05:33.990Z,23.09
2023-03-17T04:06:34.065Z,23.09
2023-03-17T04:07:34.175Z,23.09
2023-03-17T04:08:34.266Z,23.07
2023-03-17T04:09:34.332Z,23.09
2023-03-17T04:10:34.441Z,23.09
2023-03-17T04:11:34.511Z,23.13
2023-03-17T04:12:34.552Z,23.10
2023-03-17T04:13:34.612Z,23.13
2023-03-17T04:14:34.677Z,23.14
2023-03-17T04:15:34.794Z,23.13
2023-03-17T04:16:34.832Z,23.14
2023-03-17T04:17:34.858Z,23.13
2023-03-17T04:18:34.974Z,23.16
2023-03-17T04:19:35.001Z,23.17
2023-03-17T04:20:35.040Z,23.17
2023-03-17T04:21:35.122Z,23.17
2023-03-17T04:22:35.238Z,23.18
2023-03-17T04:23:35.326Z,23.17
2023-03-17T04:24:35.426Z,23.18
2023-03-17T04:25:35.541Z,23.20
2023-03-17T04:26:35.654Z,23.21
2023-03-17T04:27:35.766Z,23.21
2023-03-17T04:28:35.892Z,23.23
2023-03-17T04:29:35.988Z,23.24
2023-03-17T04:30:36.089Z,23.23
2023-03-17T04:31:36.215Z,23.24
2023-03-17T04:32:36.335Z,23.24
2023-03-17T04:33:36.420Z,23.27
2023-03-17T04:34:36.546Z,23.27
2023-03-17T04:47:37.984Z,23.33
2023-03-17T04:48:38.641Z,23.34
2023-03-17T04:49:38.190Z,23.34
2023-03-17T04:50:38.287Z,23.34
2023-03-17T04:51:38.404Z,23.33
2023-03-17T04:52:38.527Z,23.35
2023-03-17T04:53:38.624Z,23.34
2023-03-17T04:54:38.744Z,23.35
2023-03-17T04:55:38.837Z,23.34
2023-03-17T04:56:38.949Z,23.35
2023-03-17T04:57:39.069Z,23.34
2023-03-17T04:58:39.164Z,23.38
2023-03-17T04:59:39.274Z,23.35
2023-03-17T05:00:39.376Z,23.37
2023-03-17T05:01:39.486Z,23.38
2023-03-17T05:02:39.632Z,23.37
2023-03-17T05:03:39.720Z,23.37
2023-03-17T05:04:39.813Z,23.37
2023-03-17T05:05:39.920Z,23.37
2023-03-17T05:06:40.043Z,23.41
2023-03-17T05:07:40.152Z,23.40
2023-03-17T05:08:40.245Z,23.40
2023-03-17T05:09:40.366Z,23.37
2023-03-17T06:21:48.016Z,23.53
2023-03-17T06:23:02.701Z,23.54
2023-03-17T06:23:49.163Z,23.54
2023-03-17T06:24:48.209Z,23.54
2023-03-17T06:25:48.259Z,23.53
2023-03-17T06:26:48.302Z,23.57
2023-03-17T06:27:48.338Z,23.57
2023-03-17T06:28:48.386Z,23.61
2023-03-17T06:29:48.428Z,23.64
2023-03-17T06:30:48.526Z,23.68
2023-03-17T06:31:48.519Z,23.73
2023-03-17T06:32:48.594Z,23.81
2023-03-17T06:33:48.601Z,23.85
2023-03-17T06:34:48.678Z,23.91
2023-03-17T06:35:48.747Z,23.98
2023-03-17T06:36:48.745Z,24.03
2023-03-17T06:37:48.795Z,24.13
2023-03-17T06:38:48.846Z,24.16
2023-03-17T06:39:48.924Z,24.23
2023-03-17T06:40:48.958Z,24.29
2023-03-17T06:41:49.024Z,24.36
2023-03-17T06:42:49.098Z,24.40
2023-03-17T06:43:49.160Z,24.46
2023-03-17T06:44:49.263Z,24.54
2023-03-17T06:45:49.365Z,24.58
2023-03-17T06:46:49.528Z,24.63
2023-03-17T06:47:49.568Z,24.68
2023-03-17T06:48:49.660Z,24.74
2023-03-17T06:49:49.748Z,24.79
2023-03-17T06:50:49.858Z,24.82
2023-03-17T06:51:49.937Z,24.85
2023-03-17T06:52:50.047Z,24.92
2023-03-17T06:53:50.142Z,24.95
2023-03-17T06:54:50.220Z,24.98
2023-03-17T06:55:50.302Z,25.01
2023-03-17T06:56:50.376Z,25.04
2023-03-17T06:57:51.266Z,25.01
2023-03-17T06:58:50.556Z,24.99
2023-03-17T06:59:50.656Z,24.91
2023-03-17T07:00:50.693Z,24.88
2023-03-17T07:01:50.782Z,24.86
2023-03-17T07:02:50.825Z,24.85
2023-03-17T07:03:50.896Z,24.85
2023-03-17T07:04:50.987Z,24.85
2023-03-17T07:05:51.012Z,24.88
2023-03-17T07:06:51.083Z,24.88
2023-03-17T07:07:51.169Z,24.91
2023-03-17T07:08:51.276Z,24.92
2023-03-17T07:53:05.441Z,25.51
2023-03-17T09:29:57.989Z,24.47
2023-03-17T09:30:58.050Z,24.44
2023-03-17T09:31:58.042Z,24.44
2023-03-17T09:32:58.206Z,24.48
2023-03-17T09:33:58.095Z,24.53
2023-03-17T09:34:58.123Z,24.58
2023-03-17T09:35:58.223Z,24.61
2023-03-17T09:36:58.180Z,24.68
2023-03-17T09:37:58.202Z,24.78
2023-03-17T09:38:58.230Z,24.82
2023-03-17T09:39:58.299Z,24.89
2023-03-17T09:40:58.395Z,24.95
2023-03-17T09:41:58.478Z,25.04
2023-03-17T09:42:58.537Z,25.08
2023-03-17T09:43:58.619Z,25.13
2023-03-17T09:44:58.672Z,25.19
2023-03-17T09:45:58.740Z,25.23
2023-03-17T09:46:58.795Z,25.28
2023-03-17T09:47:58.864Z,25.32
2023-03-17T09:48:58.891Z,25.39
2023-03-17T09:49:58.936Z,25.46
2023-03-17T09:50:58.987Z,25.51
2023-03-17T09:57:59.268Z,25.76
2023-03-17T09:58:59.298Z,25.78
2023-03-17T09:59:59.333Z,25.80
2023-03-17T10:00:59.360Z,25.81
2023-03-17T10:01:59.444Z,25.84
2023-03-17T10:02:59.421Z,25.85
2023-03-17T10:03:59.437Z,25.87
2023-03-17T10:04:59.524Z,25.87
2023-03-17T10:05:59.482Z,25.91
2023-03-17T10:06:59.513Z,25.92
2023-03-17T10:07:59.552Z,25.94
2023-03-17T10:08:59.569Z,25.95
2023-03-17T10:09:59.581Z,25.97
2023-03-17T10:10:59.610Z,25.99
2023-03-17T10:11:59.650Z,25.99
2023-03-17T10:12:59.671Z,26.01
2023-03-17T10:13:59.718Z,26.02
2023-03-17T10:14:59.732Z,26.04
2023-03-17T10:15:59.819Z,26.01
2023-03-17T10:16:59.776Z,26.01
2023-03-17T10:17:59.818Z,26.01
2023-03-17T10:18:59.868Z,25.98
2023-03-17T10:19:59.884Z,25.95
2023-03-17T10:20:59.908Z,25.94
2023-03-17T10:21:59.954Z,25.89
2023-03-17T10:22:59.973Z,25.84
2023-03-17T10:24:00.021Z,25.78
2023-03-17T10:25:02.397Z,25.74
2023-03-17T10:26:00.116Z,25.74
2023-03-17T10:27:00.115Z,25.69
2023-03-17T10:28:00.144Z,25.67
2023-03-17T10:29:00.160Z,25.61
2023-03-17T10:30:00.184Z,25.59
2023-03-17T10:31:00.207Z,25.57
2023-03-17T10:32:00.317Z,25.54
2023-03-17T10:33:00.263Z,25.49
2023-03-17T10:34:00.262Z,25.47
2023-03-17T10:35:00.293Z,25.43
2023-03-17T10:36:00.344Z,25.42
2023-03-17T10:37:00.343Z,25.37
2023-03-17T10:38:13.853Z,25.37
2023-03-17T10:40:00.410Z,25.30
2023-03-17T10:41:00.435Z,25.28
2023-03-17T10:43:00.482Z,25.23
2023-03-17T10:44:00.494Z,25.23
2023-03-17T10:45:00.519Z,25.21
2023-03-17T10:46:00.546Z,25.21
2023-03-17T10:47:00.634Z,25.19
2023-03-17T10:48:00.608Z,25.19
2023-03-17T10:49:00.622Z,25.18
2023-03-17T10:50:00.633Z,25.16
2023-03-17T10:51:00.659Z,25.15
2023-03-17T10:52:00.679Z,25.12
2023-03-17T10:53:00.796Z,25.11
2023-03-17T10:54:00.830Z,25.11
2023-03-17T10:55:00.935Z,25.08
2023-03-17T10:57:01.123Z,25.08
2023-03-17T10:58:01.202Z,25.06
2023-03-17T10:59:01.264Z,25.05
2023-03-17T11:41:04.344Z,25.78
2023-03-17T12:53:07.997Z,25.15
2023-03-17T12:54:08.074Z,25.11
2023-03-17T12:55:08.158Z,25.11
2023-03-17T12:56:08.236Z,25.11
2023-03-17T12:57:08.334Z,25.12
2023-03-17T12:58:08.421Z,25.09
2023-03-17T12:59:08.518Z,25.08
2023-03-17T13:00:08.606Z,25.08
2023-03-17T13:01:08.969Z,25.06
2023-03-17T13:02:08.800Z,25.08
2023-03-17T13:03:08.919Z,25.06
2023-03-17T13:04:08.964Z,25.05
2023-03-17T13:05:09.029Z,25.05
2023-03-17T13:06:09.121Z,25.04
2023-03-17T13:07:09.246Z,25.02
2023-03-17T13:08:09.306Z,25.01
2023-03-17T13:09:09.394Z,25.01
2023-03-17T13:10:09.478Z,25.02
2023-03-17T13:11:09.561Z,24.99
2023-03-17T13:12:09.648Z,24.98
2023-03-17T13:13:09.754Z,24.96
2023-03-17T13:14:09.837Z,24.99
2023-03-17T13:15:09.928Z,24.96
2023-03-17T13:16:10.050Z,24.96
2023-03-17T13:17:10.057Z,24.96
2023-03-17T13:18:10.167Z,24.95
2023-03-17T13:19:10.252Z,24.94
2023-03-17T15:23:17.990Z,24.41
2023-03-17T15:24:18.038Z,24.40
2023-03-17T15:25:18.112Z,24.41
2023-03-17T15:26:18.125Z,24.40
2023-03-17T15:27:18.175Z,24.38
2023-03-17T15:28:18.236Z,24.38
2023-03-17T15:29:18.252Z,24.40
2023-03-17T15:30:18.295Z,24.38
2023-03-17T15:31:18.362Z,24.37
2023-03-17T15:32:18.362Z,24.37
2023-03-17T15:33:18.419Z,24.38
2023-03-17T15:34:18.464Z,24.37
2023-03-17T15:37:18.560Z,24.36
2023-03-17T15:44:18.838Z,24.33
2023-03-17T15:45:18.899Z,24.31
2023-03-17T15:46:19.040Z,24.31
2023-03-17T15:47:19.031Z,24.33
2023-03-17T18:24:28.024Z,23.81
2023-03-17T18:25:28.107Z,23.79
2023-03-17T18:26:28.183Z,23.79
2023-03-17T18:27:28.259Z,23.79
2023-03-17T18:28:28.354Z,23.79
2023-03-17T18:29:28.411Z,23.79
2023-03-17T18:30:28.489Z,23.78
2023-03-17T18:31:28.564Z,23.78
2023-03-17T18:32:28.657Z,23.75
2023-03-17T18:33:28.714Z,23.79
2023-03-17T18:34:28.790Z,23.78
2023-03-17T18:35:28.910Z,23.78
2023-03-17T18:36:28.942Z,23.76
2023-03-17T18:37:29.005Z,23.75
2023-03-17T18:38:29.100Z,23.75
2023-03-17T18:39:29.167Z,23.76
2023-03-17T18:40:29.243Z,23.76
2023-03-17T18:41:29.308Z,23.75
2023-03-17T18:42:29.398Z,23.76
2023-03-17T18:43:29.470Z,23.76
2023-03-17T18:44:29.545Z,23.76
2023-03-17T18:45:29.649Z,23.75
2023-03-17T18:46:29.726Z,23.75
2023-03-17T18:47:29.786Z,23.75
2023-03-17T18:48:29.864Z,23.72
2023-03-17T18:49:29.946Z,23.73
2023-03-17T18:50:30.280Z,23.73
2023-03-17T18:51:30.113Z,23.73
2023-03-17T18:52:30.184Z,23.72
2023-03-17T18:53:30.258Z,23.72
2023-03-17T18:54:30.345Z,23.72
2023-03-17T18:55:30.437Z,23.73
2023-03-17T18:56:30.517Z,23.72
2023-03-17T18:57:30.587Z,23.73
2023-03-17T18:58:30.675Z,23.71
2023-03-17T18:59:30.748Z,23.72
2023-03-17T19:00:31.084Z,23.73
2023-03-17T19:01:30.951Z,23.72
2023-03-17T19:02:31.000Z,23.72
2023-03-17T19:03:31.131Z,23.71
2023-03-17T19:04:31.153Z,23.71
2023-03-17T19:05:31.252Z,23.71
2023-03-17T19:06:31.311Z,23.72
2023-03-17T19:07:31.400Z,23.71
2023-03-17T19:08:31.476Z,23.69
2023-03-17T19:09:31.547Z,23.72
2023-03-17T19:10:31.829Z,23.69
2023-03-17T19:11:31.716Z,23.69
2023-03-17T19:12:31.807Z,23.69
2023-03-17T19:13:31.888Z,23.71
2023-03-17T19:14:31.981Z,23.71
2023-03-17T19:15:32.073Z,23.71
2023-03-17T19:16:32.164Z,23.68
2023-03-17T19:17:32.220Z,23.68
2023-03-17T19:18:32.311Z,23.68
2023-03-17T19:19:32.390Z,23.66
2023-03-17T19:20:32.880Z,23.66
2023-03-17T19:21:32.528Z,23.66
2023-03-17T19:22:32.614Z,23.66
2023-03-17T19:23:32.685Z,23.65
2023-03-17T19:24:32.767Z,23.65
2023-03-17T19:25:32.848Z,23.65
2023-03-17T19:26:32.937Z,23.64
2023-03-17T19:27:33.033Z,23.66
2023-03-17T20:22:38.026Z,23.57
2023-03-17T20:23:38.113Z,23.54
2023-03-17T20:24:38.237Z,23.54
2023-03-17T20:25:38.312Z,23.54
2023-03-17T20:26:38.416Z,23.55
2023-03-17T20:27:38.511Z,23.54
2023-03-17T20:28:38.634Z,23.53
2023-03-17T20:29:38.775Z,23.55
2023-03-17T20:30:38.810Z,23.53
2023-03-17T20:31:38.977Z,23.54
2023-03-17T20:32:39.053Z,23.53
2023-03-17T20:33:39.118Z,23.53
2023-03-17T20:34:39.212Z,23.53
2023-03-17T20:35:39.321Z,23.54
2023-03-17T20:36:39.393Z,23.53
2023-03-17T20:37:39.485Z,23.51
2023-03-17T20:38:39.585Z,23.53
2023-03-17T20:39:39.669Z,23.55
2023-03-17T20:40:39.778Z,23.53
2023-03-17T20:41:39.875Z,23.53
2023-03-17T20:42:40.002Z,23.53
2023-03-17T20:43:40.082Z,23.53
2023-03-17T20:44:40.183Z,23.53
2023-03-17T20:45:40.285Z,23.51
2023-03-17T20:46:40.452Z,23.51
2023-03-17T20:47:40.507Z,23.51
2023-03-17T20:48:40.621Z,23.51
2023-03-17T20:49:40.707Z,23.51
2023-03-17T20:50:40.821Z,23.48
2023-03-17T20:51:40.905Z,23.50
2023-03-17T20:52:41.005Z,23.48
2023-03-17T20:53:41.108Z,23.51
2023-03-17T20:54:41.214Z,23.50
2023-03-17T20:55:41.303Z,23.50
2023-03-17T20:56:41.397Z,23.50
2023-03-17T20:57:41.506Z,23.47
2023-03-17T20:58:41.596Z,23.50
2023-03-17T20:59:41.721Z,23.47
2023-03-17T21:00:41.809Z,23.48
2023-03-17T21:01:41.933Z,23.47
2023-03-17T21:02:42.100Z,23.48
2023-03-17T21:03:42.085Z,23.48
2023-03-17T21:04:42.199Z,23.47
2023-03-17T21:05:42.305Z,23.47
2023-03-17T21:06:42.411Z,23.47
2023-03-17T21:07:42.575Z,23.47
2023-03-17T21:08:42.582Z,23.48
2023-03-17T21:09:42.685Z,23.47
2023-03-17T21:10:42.809Z,23.48
2023-03-17T21:11:42.911Z,23.48
2023-03-17T21:12:43.013Z,23.47
2023-03-17T21:13:43.120Z,23.45
2023-03-17T21:14:43.222Z,23.45
2023-03-17T21:15:43.329Z,23.45
2023-03-17T21:16:43.448Z,23.47
2023-03-17T21:17:43.543Z,23.45
2023-03-17T21:18:43.650Z,23.48
2023-03-17T21:19:43.742Z,23.47
2023-03-17T21:20:43.879Z,23.45
2023-03-17T21:21:43.938Z,23.45
2023-03-17T21:22:44.048Z,23.47
2023-03-17T21:23:44.168Z,23.47
2023-03-17T21:24:44.268Z,23.45
2023-03-17T21:25:44.381Z,23.47
2023-03-17T21:26:44.475Z,23.45
2023-03-17T21:27:44.600Z,23.44
2023-03-17T21:28:44.694Z,23.47
2023-03-17T21:29:44.786Z,23.44
2023-03-17T21:30:44.885Z,23.47
2023-03-17T21:31:45.079Z,23.45
2023-03-17T21:32:45.148Z,23.44
2023-03-17T21:33:45.214Z,23.45
2023-03-17T21:34:45.311Z,23.44
2023-03-17T21:35:45.485Z,23.43
2023-03-17T21:36:45.553Z,23.45
2023-03-17T21:37:45.661Z,23.43
2023-03-17T21:38:45.746Z,23.43
2023-03-17T21:39:45.883Z,23.44
2023-03-17T21:40:45.958Z,23.43
2023-03-17T21:41:46.063Z,23.43
2023-03-17T21:42:46.166Z,23.44
2023-03-17T21:43:46.274Z,23.43
2023-03-17T21:44:46.380Z,23.43
2023-03-17T21:59:47.973Z,23.38
2023-03-17T22:00:48.474Z,23.41
2023-03-17T22:01:48.194Z,23.43
2023-03-17T22:02:48.426Z,23.41
2023-03-17T22:03:48.418Z,23.38
2023-03-17T22:04:48.517Z,23.43
2023-03-17T22:05:48.637Z,23.40
2023-03-17T22:06:48.745Z,23.43
2023-03-17T22:07:48.826Z,23.40
2023-03-17T22:08:48.935Z,23.40
2023-03-17T22:09:49.052Z,23.40
2023-03-17T22:10:49.193Z,23.38
2023-03-17T22:11:49.276Z,23.38
2023-03-17T22:12:49.370Z,23.40
2023-03-17T22:13:49.480Z,23.41
2023-03-17T22:14:49.580Z,23.38
2023-03-17T22:15:49.710Z,23.41
2023-03-17T22:16:49.861Z,23.40
2023-03-17T22:17:49.896Z,23.40
2023-03-17T22:18:50.002Z,23.38
2023-03-17T22:19:50.113Z,23.38
2023-03-17T22:20:50.219Z,23.41
2023-03-17T22:21:50.333Z,23.38
2023-03-17T22:22:50.449Z,23.37
2023-03-17T22:23:50.554Z,23.38
2023-03-17T22:24:50.695Z,23.38
2023-03-17T22:25:50.793Z,23.37
2023-03-17T22:26:50.914Z,23.37
2023-03-17T22:27:51.022Z,23.35
2023-03-17T22:28:51.125Z,23.37
2023-03-17T22:29:51.232Z,23.38
2023-03-17T22:30:51.338Z,23.37
2023-03-17T22:31:51.493Z,23.37
2023-03-17T22:33:51.668Z,23.37
2023-03-17T22:34:51.778Z,23.35
2023-03-17T22:35:51.917Z,23.38
2023-03-17T22:36:52.019Z,23.35
2023-03-17T23:29:58.065Z,23.30
2023-03-17T23:30:58.234Z,23.30
2023-03-17T23:31:58.304Z,23.30
2023-03-17T23:32:58.462Z,23.33
2023-03-17T23:33:58.526Z,23.31
2023-03-17T23:34:58.642Z,23.30
2023-03-17T23:35:58.817Z,23.30
2023-03-17T23:36:58.865Z,23.30
2023-03-17T23:37:58.980Z,23.30
2023-03-17T23:38:59.096Z,23.30
2023-03-17T23:39:59.212Z,23.28
2023-03-17T23:40:59.320Z,23.30
2023-03-17T23:41:59.442Z,23.27
2023-03-17T23:42:59.562Z,23.28
2023-03-17T23:43:59.681Z,23.28
2023-03-17T23:44:59.797Z,23.28
2023-03-17T23:45:59.932Z,23.27
2023-03-17T23:47:00.020Z,23.28
2023-03-17T23:48:00.129Z,23.28
2023-03-17T23:49:00.244Z,23.28
2023-03-17T23:50:00.350Z,23.27
2023-03-17T23:51:00.454Z,23.28
2023-03-17T23:52:00.583Z,23.31
2023-03-17T23:53:00.729Z,23.30
2023-03-17T23:54:00.805Z,23.28
2023-03-17T23:55:00.925Z,23.28
2023-03-17T23:56:01.054Z,23.26
2023-03-17T23:57:01.159Z,23.27
2023-03-17T23:58:01.282Z,23.26
2023-03-17T23:59:01.367Z,23.27
